sensor_id;sensor_type;location;lat;lon;timestamp;P1;durP1;ratioP1;P2;durP2;ratioP2
83354;SDS011;75108;50.882;5.984;2023-12-22T00:00:28;13.80;;;3.17;;
83354;SDS011;75108;50.882;5.984;2023-12-22T00:02:53;14.20;;;3.13;;
83354;SDS011;75108;50.882;5.984;2023-12-22T00:05:19;13.53;;;3.37;;
83354;SDS011;75108;50.882;5.984;2023-12-22T00:07:44;10.52;;;2.10;;
83354;SDS011;75108;50.882;5.984;2023-12-22T00:10:10;12.43;;;3.30;;
83354;SDS011;75108;50.882;5.984;2023-12-22T00:12:35;11.70;;;3.43;;
83354;SDS011;75108;50.882;5.984;2023-12-22T00:15:03;11.77;;;2.65;;
83354;SDS011;75108;50.882;5.984;2023-12-22T00:17:29;14.63;;;3.35;;
83354;SDS011;75108;50.882;5.984;2023-12-22T00:19:55;9.30;;;2.20;;
83354;SDS011;75108;50.882;5.984;2023-12-22T00:22:23;14.70;;;3.08;;
83354;SDS011;75108;50.882;5.984;2023-12-22T00:24:50;14.48;;;4.10;;
83354;SDS011;75108;50.882;5.984;2023-12-22T00:27:15;12.60;;;2.60;;
83354;SDS011;75108;50.882;5.984;2023-12-22T00:29:41;10.33;;;3.43;;
83354;SDS011;75108;50.882;5.984;2023-12-22T00:32:06;16.08;;;3.53;;
83354;SDS011;75108;50.882;5.984;2023-12-22T00:34:34;12.27;;;2.80;;
83354;SDS011;75108;50.882;5.984;2023-12-22T00:37:00;14.90;;;5.00;;
83354;SDS011;75108;50.882;5.984;2023-12-22T00:39:25;10.23;;;1.90;;
83354;SDS011;75108;50.882;5.984;2023-12-22T00:41:51;21.45;;;5.20;;
83354;SDS011;75108;50.882;5.984;2023-12-22T00:44:17;19.60;;;4.40;;
83354;SDS011;75108;50.882;5.984;2023-12-22T00:46:42;16.52;;;4.68;;
83354;SDS011;75108;50.882;5.984;2023-12-22T00:49:08;17.83;;;3.27;;
83354;SDS011;75108;50.882;5.984;2023-12-22T00:51:33;10.03;;;2.03;;
83354;SDS011;75108;50.882;5.984;2023-12-22T00:53:58;21.90;;;5.30;;
83354;SDS011;75108;50.882;5.984;2023-12-22T00:56:24;36.35;;;7.55;;
83354;SDS011;75108;50.882;5.984;2023-12-22T00:58:49;22.47;;;4.23;;
83354;SDS011;75108;50.882;5.984;2023-12-22T01:01:15;17.57;;;4.43;;
83354;SDS011;75108;50.882;5.984;2023-12-22T01:03:40;17.50;;;3.63;;
83354;SDS011;75108;50.882;5.984;2023-12-22T01:06:06;29.02;;;6.93;;
83354;SDS011;75108;50.882;5.984;2023-12-22T01:08:31;24.33;;;5.07;;
83354;SDS011;75108;50.882;5.984;2023-12-22T01:10:57;17.80;;;3.13;;
83354;SDS011;75108;50.882;5.984;2023-12-22T01:13:22;23.77;;;4.88;;
83354;SDS011;75108;50.882;5.984;2023-12-22T01:15:48;23.07;;;5.57;;
83354;SDS011;75108;50.882;5.984;2023-12-22T01:18:14;24.30;;;6.40;;
83354;SDS011;75108;50.882;5.984;2023-12-22T01:20:39;29.33;;;6.63;;
83354;SDS011;75108;50.882;5.984;2023-12-22T01:23:05;27.90;;;6.23;;
83354;SDS011;75108;50.882;5.984;2023-12-22T01:25:30;11.10;;;1.92;;
83354;SDS011;75108;50.882;5.984;2023-12-22T01:27:56;19.07;;;4.60;;
83354;SDS011;75108;50.882;5.984;2023-12-22T01:30:22;13.55;;;3.35;;
83354;SDS011;75108;50.882;5.984;2023-12-22T01:32:47;18.43;;;4.63;;
83354;SDS011;75108;50.882;5.984;2023-12-22T01:35:13;10.40;;;2.13;;
83354;SDS011;75108;50.882;5.984;2023-12-22T01:37:39;20.13;;;5.05;;
83354;SDS011;75108;50.882;5.984;2023-12-22T01:40:05;12.10;;;1.92;;
83354;SDS011;75108;50.882;5.984;2023-12-22T01:42:31;10.00;;;1.67;;
83354;SDS011;75108;50.882;5.984;2023-12-22T01:44:56;22.90;;;6.43;;
83354;SDS011;75108;50.882;5.984;2023-12-22T01:47:22;11.90;;;2.10;;
83354;SDS011;75108;50.882;5.984;2023-12-22T01:49:48;11.52;;;2.65;;
83354;SDS011;75108;50.882;5.984;2023-12-22T01:52:14;12.10;;;1.97;;
83354;SDS011;75108;50.882;5.984;2023-12-22T01:54:40;14.85;;;3.50;;
83354;SDS011;75108;50.882;5.984;2023-12-22T01:57:06;16.13;;;3.38;;
83354;SDS011;75108;50.882;5.984;2023-12-22T01:59:32;15.80;;;5.13;;
83354;SDS011;75108;50.882;5.984;2023-12-22T02:02:00;20.33;;;5.60;;
83354;SDS011;75108;50.882;5.984;2023-12-22T02:04:27;8.10;;;2.47;;
83354;SDS011;75108;50.882;5.984;2023-12-22T02:06:53;11.65;;;2.85;;
83354;SDS011;75108;50.882;5.984;2023-12-22T02:09:19;6.97;;;1.33;;
83354;SDS011;75108;50.882;5.984;2023-12-22T02:11:44;6.70;;;1.40;;
83354;SDS011;75108;50.882;5.984;2023-12-22T02:14:09;7.67;;;1.90;;
83354;SDS011;75108;50.882;5.984;2023-12-22T02:16:43;7.33;;;1.67;;
83354;SDS011;75108;50.882;5.984;2023-12-22T02:19:27;9.40;;;1.88;;
83354;SDS011;75108;50.882;5.984;2023-12-22T02:22:07;10.70;;;1.73;;
83354;SDS011;75108;50.882;5.984;2023-12-22T02:24:33;8.77;;;1.95;;
83354;SDS011;75108;50.882;5.984;2023-12-22T02:27:03;8.82;;;1.55;;
83354;SDS011;75108;50.882;5.984;2023-12-22T02:32:19;6.45;;;1.38;;
83354;SDS011;75108;50.882;5.984;2023-12-22T02:34:49;5.18;;;1.30;;
83354;SDS011;75108;50.882;5.984;2023-12-22T02:37:17;12.25;;;1.95;;
83354;SDS011;75108;50.882;5.984;2023-12-22T02:39:45;6.88;;;1.38;;
83354;SDS011;75108;50.882;5.984;2023-12-22T02:42:12;6.63;;;1.13;;
83354;SDS011;75108;50.882;5.984;2023-12-22T02:44:38;10.65;;;1.63;;
83354;SDS011;75108;50.882;5.984;2023-12-22T02:47:04;10.18;;;1.70;;
83354;SDS011;75108;50.882;5.984;2023-12-22T02:49:29;11.67;;;1.90;;
83354;SDS011;75108;50.882;5.984;2023-12-22T02:51:55;13.68;;;2.03;;
83354;SDS011;75108;50.882;5.984;2023-12-22T02:54:21;8.20;;;1.53;;
83354;SDS011;75108;50.882;5.984;2023-12-22T02:56:47;8.40;;;1.63;;
83354;SDS011;75108;50.882;5.984;2023-12-22T02:59:12;5.88;;;1.83;;
83354;SDS011;75108;50.882;5.984;2023-12-22T03:01:38;7.93;;;1.48;;
83354;SDS011;75108;50.882;5.984;2023-12-22T03:04:04;6.63;;;1.47;;
83354;SDS011;75108;50.882;5.984;2023-12-22T03:06:29;8.07;;;1.33;;
83354;SDS011;75108;50.882;5.984;2023-12-22T03:08:55;6.55;;;1.30;;
83354;SDS011;75108;50.882;5.984;2023-12-22T03:11:20;7.23;;;1.57;;
83354;SDS011;75108;50.882;5.984;2023-12-22T03:13:46;5.57;;;0.87;;
83354;SDS011;75108;50.882;5.984;2023-12-22T03:16:11;8.83;;;1.57;;
83354;SDS011;75108;50.882;5.984;2023-12-22T03:18:40;7.25;;;1.08;;
83354;SDS011;75108;50.882;5.984;2023-12-22T03:21:05;8.38;;;1.20;;
83354;SDS011;75108;50.882;5.984;2023-12-22T03:23:31;8.60;;;1.13;;
83354;SDS011;75108;50.882;5.984;2023-12-22T03:25:56;9.27;;;1.50;;
83354;SDS011;75108;50.882;5.984;2023-12-22T03:28:22;8.10;;;1.23;;
83354;SDS011;75108;50.882;5.984;2023-12-22T03:30:47;9.20;;;1.10;;
83354;SDS011;75108;50.882;5.984;2023-12-22T03:33:13;10.43;;;1.50;;
83354;SDS011;75108;50.882;5.984;2023-12-22T03:35:38;8.43;;;1.60;;
83354;SDS011;75108;50.882;5.984;2023-12-22T03:38:03;7.17;;;1.80;;
83354;SDS011;75108;50.882;5.984;2023-12-22T03:40:29;11.57;;;1.60;;
83354;SDS011;75108;50.882;5.984;2023-12-22T03:42:55;10.37;;;1.97;;
83354;SDS011;75108;50.882;5.984;2023-12-22T03:45:21;13.73;;;2.10;;
83354;SDS011;75108;50.882;5.984;2023-12-22T03:47:46;10.43;;;2.50;;
83354;SDS011;75108;50.882;5.984;2023-12-22T03:50:12;12.05;;;2.05;;
83354;SDS011;75108;50.882;5.984;2023-12-22T03:52:38;12.70;;;2.30;;
83354;SDS011;75108;50.882;5.984;2023-12-22T03:55:03;11.10;;;2.43;;
83354;SDS011;75108;50.882;5.984;2023-12-22T03:57:29;13.55;;;2.47;;
83354;SDS011;75108;50.882;5.984;2023-12-22T03:59:54;13.07;;;2.10;;
83354;SDS011;75108;50.882;5.984;2023-12-22T04:02:20;9.75;;;1.55;;
83354;SDS011;75108;50.882;5.984;2023-12-22T04:04:45;13.73;;;2.40;;
83354;SDS011;75108;50.882;5.984;2023-12-22T04:07:11;10.93;;;2.27;;
83354;SDS011;75108;50.882;5.984;2023-12-22T04:09:37;13.07;;;2.07;;
83354;SDS011;75108;50.882;5.984;2023-12-22T04:12:05;12.57;;;2.47;;
83354;SDS011;75108;50.882;5.984;2023-12-22T04:14:31;9.45;;;2.17;;
83354;SDS011;75108;50.882;5.984;2023-12-22T04:16:56;15.33;;;2.83;;
83354;SDS011;75108;50.882;5.984;2023-12-22T04:19:22;14.00;;;1.73;;
83354;SDS011;75108;50.882;5.984;2023-12-22T04:21:47;13.50;;;2.10;;
83354;SDS011;75108;50.882;5.984;2023-12-22T04:24:13;14.17;;;2.17;;
83354;SDS011;75108;50.882;5.984;2023-12-22T04:26:39;11.88;;;2.60;;
83354;SDS011;75108;50.882;5.984;2023-12-22T04:29:04;11.63;;;1.73;;
83354;SDS011;75108;50.882;5.984;2023-12-22T04:31:30;17.20;;;1.87;;
83354;SDS011;75108;50.882;5.984;2023-12-22T04:33:55;13.77;;;2.30;;
83354;SDS011;75108;50.882;5.984;2023-12-22T04:36:21;9.27;;;1.77;;
83354;SDS011;75108;50.882;5.984;2023-12-22T04:38:46;11.97;;;1.97;;
83354;SDS011;75108;50.882;5.984;2023-12-22T04:41:11;7.33;;;2.00;;
83354;SDS011;75108;50.882;5.984;2023-12-22T04:43:37;5.47;;;1.40;;
83354;SDS011;75108;50.882;5.984;2023-12-22T04:46:02;11.25;;;2.10;;
83354;SDS011;75108;50.882;5.984;2023-12-22T04:48:28;9.43;;;1.40;;
83354;SDS011;75108;50.882;5.984;2023-12-22T04:50:53;7.37;;;1.37;;
83354;SDS011;75108;50.882;5.984;2023-12-22T04:53:19;12.23;;;2.00;;
83354;SDS011;75108;50.882;5.984;2023-12-22T04:55:44;7.20;;;1.23;;
83354;SDS011;75108;50.882;5.984;2023-12-22T04:58:09;7.50;;;1.13;;
83354;SDS011;75108;50.882;5.984;2023-12-22T05:00:35;10.30;;;1.63;;
83354;SDS011;75108;50.882;5.984;2023-12-22T05:03:00;8.17;;;1.30;;
83354;SDS011;75108;50.882;5.984;2023-12-22T05:05:26;8.65;;;1.65;;
83354;SDS011;75108;50.882;5.984;2023-12-22T05:07:51;11.13;;;1.60;;
83354;SDS011;75108;50.882;5.984;2023-12-22T05:10:16;6.30;;;1.27;;
83354;SDS011;75108;50.882;5.984;2023-12-22T05:12:42;10.57;;;1.67;;
83354;SDS011;75108;50.882;5.984;2023-12-22T05:15:07;9.33;;;1.10;;
83354;SDS011;75108;50.882;5.984;2023-12-22T05:17:33;9.30;;;1.52;;
83354;SDS011;75108;50.882;5.984;2023-12-22T05:19:58;11.20;;;1.57;;
83354;SDS011;75108;50.882;5.984;2023-12-22T05:22:24;9.00;;;1.57;;
83354;SDS011;75108;50.882;5.984;2023-12-22T05:24:49;14.35;;;1.30;;
83354;SDS011;75108;50.882;5.984;2023-12-22T05:27:15;12.20;;;2.23;;
83354;SDS011;75108;50.882;5.984;2023-12-22T05:29:40;6.80;;;1.10;;
83354;SDS011;75108;50.882;5.984;2023-12-22T05:32:06;14.57;;;2.47;;
83354;SDS011;75108;50.882;5.984;2023-12-22T05:34:31;10.38;;;1.42;;
83354;SDS011;75108;50.882;5.984;2023-12-22T05:36:57;11.80;;;2.03;;
83354;SDS011;75108;50.882;5.984;2023-12-22T05:39:22;14.23;;;1.57;;
83354;SDS011;75108;50.882;5.984;2023-12-22T05:41:47;7.28;;;1.80;;
83354;SDS011;75108;50.882;5.984;2023-12-22T05:44:13;11.67;;;1.50;;
83354;SDS011;75108;50.882;5.984;2023-12-22T05:46:38;8.43;;;1.40;;
83354;SDS011;75108;50.882;5.984;2023-12-22T05:49:04;10.07;;;2.43;;
83354;SDS011;75108;50.882;5.984;2023-12-22T05:51:35;7.53;;;1.83;;
83354;SDS011;75108;50.882;5.984;2023-12-22T05:54:02;12.55;;;2.45;;
83354;SDS011;75108;50.882;5.984;2023-12-22T05:56:27;11.67;;;2.13;;
83354;SDS011;75108;50.882;5.984;2023-12-22T05:58:53;11.97;;;2.30;;
83354;SDS011;75108;50.882;5.984;2023-12-22T06:01:18;11.20;;;2.20;;
83354;SDS011;75108;50.882;5.984;2023-12-22T06:03:44;10.60;;;1.80;;
83354;SDS011;75108;50.882;5.984;2023-12-22T06:06:11;8.95;;;1.83;;
83354;SDS011;75108;50.882;5.984;2023-12-22T06:08:37;11.63;;;2.07;;
83354;SDS011;75108;50.882;5.984;2023-12-22T06:11:03;12.25;;;1.92;;
83354;SDS011;75108;50.882;5.984;2023-12-22T06:13:29;9.73;;;1.35;;
83354;SDS011;75108;50.882;5.984;2023-12-22T06:15:54;13.33;;;2.27;;
83354;SDS011;75108;50.882;5.984;2023-12-22T06:18:19;11.53;;;2.87;;
83354;SDS011;75108;50.882;5.984;2023-12-22T06:20:45;6.97;;;1.83;;
83354;SDS011;75108;50.882;5.984;2023-12-22T06:23:10;22.27;;;2.88;;
83354;SDS011;75108;50.882;5.984;2023-12-22T06:25:36;13.97;;;2.53;;
83354;SDS011;75108;50.882;5.984;2023-12-22T06:28:01;10.33;;;2.27;;
83354;SDS011;75108;50.882;5.984;2023-12-22T06:30:26;14.73;;;2.67;;
83354;SDS011;75108;50.882;5.984;2023-12-22T06:32:52;20.57;;;2.90;;
83354;SDS011;75108;50.882;5.984;2023-12-22T06:35:17;14.67;;;2.83;;
83354;SDS011;75108;50.882;5.984;2023-12-22T06:37:48;13.43;;;2.38;;
83354;SDS011;75108;50.882;5.984;2023-12-22T06:40:14;12.57;;;2.80;;
83354;SDS011;75108;50.882;5.984;2023-12-22T06:42:39;21.33;;;3.33;;
83354;SDS011;75108;50.882;5.984;2023-12-22T06:45:05;19.57;;;3.43;;
83354;SDS011;75108;50.882;5.984;2023-12-22T06:47:31;15.53;;;2.00;;
83354;SDS011;75108;50.882;5.984;2023-12-22T06:49:56;10.68;;;1.92;;
83354;SDS011;75108;50.882;5.984;2023-12-22T06:52:22;15.47;;;2.73;;
83354;SDS011;75108;50.882;5.984;2023-12-22T06:54:47;12.20;;;2.10;;
83354;SDS011;75108;50.882;5.984;2023-12-22T06:57:12;17.17;;;2.50;;
83354;SDS011;75108;50.882;5.984;2023-12-22T06:59:38;19.13;;;2.93;;
83354;SDS011;75108;50.882;5.984;2023-12-22T07:02:04;18.02;;;2.92;;
83354;SDS011;75108;50.882;5.984;2023-12-22T07:04:29;11.47;;;1.97;;
83354;SDS011;75108;50.882;5.984;2023-12-22T07:06:55;18.50;;;3.10;;
83354;SDS011;75108;50.882;5.984;2023-12-22T07:11:47;8.20;;;1.75;;
83354;SDS011;75108;50.882;5.984;2023-12-22T07:14:14;13.48;;;2.38;;
83354;SDS011;75108;50.882;5.984;2023-12-22T07:16:40;17.03;;;2.67;;
83354;SDS011;75108;50.882;5.984;2023-12-22T07:19:07;19.70;;;3.60;;
83354;SDS011;75108;50.882;5.984;2023-12-22T07:21:33;17.25;;;2.88;;
83354;SDS011;75108;50.882;5.984;2023-12-22T07:23:58;21.07;;;3.23;;
83354;SDS011;75108;50.882;5.984;2023-12-22T07:26:24;14.45;;;2.40;;
83354;SDS011;75108;50.882;5.984;2023-12-22T07:28:51;15.25;;;2.47;;
83354;SDS011;75108;50.882;5.984;2023-12-22T07:31:17;16.57;;;2.43;;
83354;SDS011;75108;50.882;5.984;2023-12-22T07:33:43;10.07;;;2.53;;
83354;SDS011;75108;50.882;5.984;2023-12-22T07:36:08;15.90;;;2.07;;
83354;SDS011;75108;50.882;5.984;2023-12-22T07:38:34;13.33;;;2.40;;
83354;SDS011;75108;50.882;5.984;2023-12-22T07:40:59;14.15;;;3.38;;
83354;SDS011;75108;50.882;5.984;2023-12-22T07:43:25;17.50;;;2.33;;
83354;SDS011;75108;50.882;5.984;2023-12-22T07:45:50;14.23;;;3.20;;
83354;SDS011;75108;50.882;5.984;2023-12-22T07:48:16;14.00;;;2.93;;
83354;SDS011;75108;50.882;5.984;2023-12-22T07:50:42;20.80;;;2.42;;
83354;SDS011;75108;50.882;5.984;2023-12-22T07:53:08;13.27;;;2.70;;
83354;SDS011;75108;50.882;5.984;2023-12-22T07:55:34;11.75;;;2.50;;
83354;SDS011;75108;50.882;5.984;2023-12-22T07:57:59;17.27;;;3.03;;
83354;SDS011;75108;50.882;5.984;2023-12-22T08:00:25;16.25;;;2.80;;
83354;SDS011;75108;50.882;5.984;2023-12-22T08:02:50;15.00;;;1.93;;
83354;SDS011;75108;50.882;5.984;2023-12-22T08:05:17;24.08;;;3.90;;
83354;SDS011;75108;50.882;5.984;2023-12-22T08:07:44;15.50;;;2.50;;
83354;SDS011;75108;50.882;5.984;2023-12-22T08:10:09;13.77;;;2.65;;
83354;SDS011;75108;50.882;5.984;2023-12-22T08:12:35;16.50;;;3.23;;
83354;SDS011;75108;50.882;5.984;2023-12-22T08:15:00;12.73;;;2.75;;
83354;SDS011;75108;50.882;5.984;2023-12-22T08:17:26;12.20;;;2.73;;
83354;SDS011;75108;50.882;5.984;2023-12-22T08:19:52;14.52;;;2.95;;
83354;SDS011;75108;50.882;5.984;2023-12-22T08:22:18;20.97;;;3.90;;
83354;SDS011;75108;50.882;5.984;2023-12-22T08:24:43;11.07;;;2.53;;
83354;SDS011;75108;50.882;5.984;2023-12-22T08:27:09;19.40;;;2.93;;
83354;SDS011;75108;50.882;5.984;2023-12-22T08:29:34;11.20;;;2.10;;
83354;SDS011;75108;50.882;5.984;2023-12-22T08:32:00;16.90;;;2.90;;
83354;SDS011;75108;50.882;5.984;2023-12-22T08:34:26;16.13;;;2.60;;
83354;SDS011;75108;50.882;5.984;2023-12-22T08:36:52;12.98;;;2.30;;
83354;SDS011;75108;50.882;5.984;2023-12-22T08:42:01;7.25;;;1.88;;
83354;SDS011;75108;50.882;5.984;2023-12-22T08:44:27;11.07;;;2.78;;
83354;SDS011;75108;50.882;5.984;2023-12-22T08:46:53;13.97;;;2.00;;
83354;SDS011;75108;50.882;5.984;2023-12-22T08:49:18;12.30;;;2.17;;
83354;SDS011;75108;50.882;5.984;2023-12-22T08:51:43;8.10;;;2.93;;
83354;SDS011;75108;50.882;5.984;2023-12-22T08:54:09;18.50;;;5.47;;
83354;SDS011;75108;50.882;5.984;2023-12-22T08:56:34;28.77;;;9.27;;
83354;SDS011;75108;50.882;5.984;2023-12-22T08:59:00;23.50;;;10.93;;
83354;SDS011;75108;50.882;5.984;2023-12-22T09:01:26;22.50;;;6.55;;
83354;SDS011;75108;50.882;5.984;2023-12-22T09:03:51;98.33;;;29.90;;
83354;SDS011;75108;50.882;5.984;2023-12-22T09:06:18;236.98;;;68.28;;
83354;SDS011;75108;50.882;5.984;2023-12-22T09:08:47;163.45;;;48.95;;
83354;SDS011;75108;50.882;5.984;2023-12-22T09:11:15;204.88;;;59.92;;
83354;SDS011;75108;50.882;5.984;2023-12-22T09:13:42;118.47;;;31.83;;
83354;SDS011;75108;50.882;5.984;2023-12-22T09:16:08;277.40;;;84.47;;
83354;SDS011;75108;50.882;5.984;2023-12-22T09:18:34;256.60;;;74.47;;
83354;SDS011;75108;50.882;5.984;2023-12-22T09:21:00;258.77;;;71.20;;
83354;SDS011;75108;50.882;5.984;2023-12-22T09:23:26;178.80;;;63.72;;
83354;SDS011;75108;50.882;5.984;2023-12-22T09:25:52;127.38;;;43.42;;
83354;SDS011;75108;50.882;5.984;2023-12-22T09:28:17;185.37;;;66.63;;
83354;SDS011;75108;50.882;5.984;2023-12-22T09:30:43;94.18;;;36.63;;
83354;SDS011;75108;50.882;5.984;2023-12-22T09:33:09;76.33;;;30.63;;
83354;SDS011;75108;50.882;5.984;2023-12-22T09:35:34;95.45;;;37.55;;
83354;SDS011;75108;50.882;5.984;2023-12-22T09:38:00;71.10;;;30.57;;
83354;SDS011;75108;50.882;5.984;2023-12-22T09:40:26;92.22;;;39.83;;
83354;SDS011;75108;50.882;5.984;2023-12-22T09:42:54;65.37;;;28.70;;
83354;SDS011;75108;50.882;5.984;2023-12-22T09:45:20;194.82;;;84.82;;
83354;SDS011;75108;50.882;5.984;2023-12-22T09:47:46;71.60;;;27.55;;
83354;SDS011;75108;50.882;5.984;2023-12-22T09:50:13;166.85;;;68.85;;
83354;SDS011;75108;50.882;5.984;2023-12-22T09:52:39;102.63;;;40.50;;
83354;SDS011;75108;50.882;5.984;2023-12-22T09:55:09;70.53;;;28.25;;
83354;SDS011;75108;50.882;5.984;2023-12-22T09:57:35;70.15;;;31.48;;
83354;SDS011;75108;50.882;5.984;2023-12-22T10:00:03;117.53;;;41.83;;
83354;SDS011;75108;50.882;5.984;2023-12-22T10:02:33;87.85;;;33.50;;
83354;SDS011;75108;50.882;5.984;2023-12-22T10:05:02;46.40;;;19.50;;
83354;SDS011;75108;50.882;5.984;2023-12-22T10:07:28;89.47;;;39.30;;
83354;SDS011;75108;50.882;5.984;2023-12-22T10:09:55;54.08;;;24.80;;
83354;SDS011;75108;50.882;5.984;2023-12-22T10:12:21;57.90;;;29.40;;
83354;SDS011;75108;50.882;5.984;2023-12-22T10:14:49;74.30;;;33.00;;
83354;SDS011;75108;50.882;5.984;2023-12-22T10:17:15;55.20;;;25.47;;
83354;SDS011;75108;50.882;5.984;2023-12-22T10:19:42;49.58;;;24.80;;
83354;SDS011;75108;50.882;5.984;2023-12-22T10:22:07;36.43;;;17.00;;
83354;SDS011;75108;50.882;5.984;2023-12-22T10:24:37;58.80;;;25.80;;
83354;SDS011;75108;50.882;5.984;2023-12-22T10:27:07;54.22;;;27.67;;
83354;SDS011;75108;50.882;5.984;2023-12-22T10:29:33;70.35;;;39.00;;
83354;SDS011;75108;50.882;5.984;2023-12-22T10:32:00;14.43;;;12.23;;
83354;SDS011;75108;50.882;5.984;2023-12-22T10:34:26;6.40;;;3.78;;
83354;SDS011;75108;50.882;5.984;2023-12-22T10:36:52;8.80;;;3.90;;
83354;SDS011;75108;50.882;5.984;2023-12-22T10:39:17;7.63;;;4.07;;
83354;SDS011;75108;50.882;5.984;2023-12-22T10:41:43;11.70;;;8.40;;
83354;SDS011;75108;50.882;5.984;2023-12-22T10:44:09;14.40;;;9.43;;
83354;SDS011;75108;50.882;5.984;2023-12-22T10:46:34;11.40;;;7.83;;
83354;SDS011;75108;50.882;5.984;2023-12-22T10:49:01;4.73;;;2.90;;
83354;SDS011;75108;50.882;5.984;2023-12-22T10:51:29;6.82;;;3.78;;
83354;SDS011;75108;50.882;5.984;2023-12-22T10:53:57;6.95;;;3.05;;
83354;SDS011;75108;50.882;5.984;2023-12-22T10:56:23;7.97;;;4.33;;
83354;SDS011;75108;50.882;5.984;2023-12-22T10:58:50;5.72;;;2.28;;
83354;SDS011;75108;50.882;5.984;2023-12-22T11:01:17;5.95;;;2.47;;
83354;SDS011;75108;50.882;5.984;2023-12-22T11:03:46;5.20;;;2.53;;
83354;SDS011;75108;50.882;5.984;2023-12-22T11:06:15;4.85;;;2.38;;
83354;SDS011;75108;50.882;5.984;2023-12-22T11:08:42;4.83;;;2.87;;
83354;SDS011;75108;50.882;5.984;2023-12-22T11:11:16;8.27;;;3.53;;
83354;SDS011;75108;50.882;5.984;2023-12-22T11:13:51;5.30;;;2.80;;
83354;SDS011;75108;50.882;5.984;2023-12-22T11:16:19;7.78;;;2.95;;
83354;SDS011;75108;50.882;5.984;2023-12-22T11:18:46;4.80;;;2.03;;
83354;SDS011;75108;50.882;5.984;2023-12-22T11:21:13;5.47;;;3.37;;
83354;SDS011;75108;50.882;5.984;2023-12-22T11:23:39;4.30;;;2.20;;
83354;SDS011;75108;50.882;5.984;2023-12-22T11:26:06;4.35;;;2.58;;
83354;SDS011;75108;50.882;5.984;2023-12-22T11:28:36;5.70;;;2.40;;
83354;SDS011;75108;50.882;5.984;2023-12-22T11:31:03;5.75;;;2.95;;
83354;SDS011;75108;50.882;5.984;2023-12-22T11:33:31;5.87;;;3.10;;
83354;SDS011;75108;50.882;5.984;2023-12-22T11:36:00;7.13;;;3.22;;
83354;SDS011;75108;50.882;5.984;2023-12-22T11:38:28;6.35;;;2.28;;
83354;SDS011;75108;50.882;5.984;2023-12-22T11:40:53;4.17;;;2.27;;
83354;SDS011;75108;50.882;5.984;2023-12-22T11:43:19;5.68;;;1.90;;
83354;SDS011;75108;50.882;5.984;2023-12-22T11:45:48;6.57;;;1.92;;
83354;SDS011;75108;50.882;5.984;2023-12-22T11:48:14;6.20;;;2.33;;
83354;SDS011;75108;50.882;5.984;2023-12-22T11:50:42;6.03;;;2.30;;
83354;SDS011;75108;50.882;5.984;2023-12-22T11:53:17;4.63;;;2.67;;
83354;SDS011;75108;50.882;5.984;2023-12-22T12:01:01;5.38;;;2.03;;
83354;SDS011;75108;50.882;5.984;2023-12-22T12:03:31;6.40;;;2.40;;
83354;SDS011;75108;50.882;5.984;2023-12-22T12:08:42;5.15;;;2.25;;
83354;SDS011;75108;50.882;5.984;2023-12-22T12:11:08;7.82;;;2.55;;
83354;SDS011;75108;50.882;5.984;2023-12-22T12:13:34;6.63;;;3.10;;
83354;SDS011;75108;50.882;5.984;2023-12-22T12:16:06;8.43;;;2.65;;
83354;SDS011;75108;50.882;5.984;2023-12-22T12:18:32;6.60;;;2.30;;
83354;SDS011;75108;50.882;5.984;2023-12-22T12:20:59;4.20;;;1.90;;
83354;SDS011;75108;50.882;5.984;2023-12-22T12:23:26;9.13;;;3.00;;
83354;SDS011;75108;50.882;5.984;2023-12-22T12:25:55;12.15;;;5.63;;
83354;SDS011;75108;50.882;5.984;2023-12-22T12:28:28;20.77;;;12.20;;
83354;SDS011;75108;50.882;5.984;2023-12-22T12:31:05;14.32;;;6.80;;
83354;SDS011;75108;50.882;5.984;2023-12-22T12:33:31;22.87;;;13.87;;
83354;SDS011;75108;50.882;5.984;2023-12-22T12:35:58;19.15;;;10.32;;
83354;SDS011;75108;50.882;5.984;2023-12-22T12:41:09;6.53;;;4.55;;
83354;SDS011;75108;50.882;5.984;2023-12-22T12:43:36;12.10;;;8.85;;
83354;SDS011;75108;50.882;5.984;2023-12-22T12:46:07;7.73;;;4.83;;
83354;SDS011;75108;50.882;5.984;2023-12-22T12:48:33;9.63;;;6.72;;
83354;SDS011;75108;50.882;5.984;2023-12-22T12:51:04;6.60;;;3.23;;
83354;SDS011;75108;50.882;5.984;2023-12-22T12:53:34;6.30;;;2.53;;
83354;SDS011;75108;50.882;5.984;2023-12-22T12:56:01;5.38;;;3.47;;
83354;SDS011;75108;50.882;5.984;2023-12-22T12:58:29;5.43;;;2.57;;
83354;SDS011;75108;50.882;5.984;2023-12-22T13:01:07;6.80;;;3.22;;
83354;SDS011;75108;50.882;5.984;2023-12-22T13:03:51;8.40;;;3.78;;
83354;SDS011;75108;50.882;5.984;2023-12-22T13:06:20;6.35;;;2.10;;
83354;SDS011;75108;50.882;5.984;2023-12-22T13:08:49;7.63;;;2.03;;
83354;SDS011;75108;50.882;5.984;2023-12-22T13:11:16;4.10;;;1.58;;
83354;SDS011;75108;50.882;5.984;2023-12-22T13:13:45;7.30;;;1.98;;
83354;SDS011;75108;50.882;5.984;2023-12-22T13:16:10;3.67;;;1.43;;
83354;SDS011;75108;50.882;5.984;2023-12-22T13:18:36;5.45;;;1.95;;
83354;SDS011;75108;50.882;5.984;2023-12-22T13:21:02;4.73;;;1.63;;
83354;SDS011;75108;50.882;5.984;2023-12-22T13:23:28;6.65;;;1.60;;
83354;SDS011;75108;50.882;5.984;2023-12-22T13:25:53;4.87;;;1.57;;
83354;SDS011;75108;50.882;5.984;2023-12-22T13:28:25;4.75;;;1.33;;
83354;SDS011;75108;50.882;5.984;2023-12-22T13:30:52;7.23;;;1.50;;
83354;SDS011;75108;50.882;5.984;2023-12-22T13:33:17;9.48;;;1.80;;
83354;SDS011;75108;50.882;5.984;2023-12-22T13:35:43;4.00;;;1.20;;
83354;SDS011;75108;50.882;5.984;2023-12-22T13:38:09;6.30;;;1.67;;
83354;SDS011;75108;50.882;5.984;2023-12-22T13:40:34;8.68;;;1.50;;
83354;SDS011;75108;50.882;5.984;2023-12-22T13:43:00;6.13;;;1.90;;
83354;SDS011;75108;50.882;5.984;2023-12-22T13:45:27;7.40;;;2.47;;
83354;SDS011;75108;50.882;5.984;2023-12-22T13:47:53;4.70;;;1.87;;
83354;SDS011;75108;50.882;5.984;2023-12-22T13:50:19;7.35;;;2.33;;
83354;SDS011;75108;50.882;5.984;2023-12-22T13:52:48;5.80;;;2.38;;
83354;SDS011;75108;50.882;5.984;2023-12-22T13:55:15;7.70;;;2.42;;
83354;SDS011;75108;50.882;5.984;2023-12-22T13:57:43;6.20;;;2.00;;
83354;SDS011;75108;50.882;5.984;2023-12-22T14:02:49;5.63;;;1.92;;
83354;SDS011;75108;50.882;5.984;2023-12-22T14:05:15;4.30;;;1.90;;
83354;SDS011;75108;50.882;5.984;2023-12-22T14:07:43;5.57;;;1.70;;
83354;SDS011;75108;50.882;5.984;2023-12-22T14:10:09;6.38;;;1.63;;
83354;SDS011;75108;50.882;5.984;2023-12-22T14:12:39;6.35;;;1.92;;
83354;SDS011;75108;50.882;5.984;2023-12-22T14:17:32;5.20;;;1.00;;
83354;SDS011;75108;50.882;5.984;2023-12-22T14:19:57;3.87;;;1.20;;
83354;SDS011;75108;50.882;5.984;2023-12-22T14:22:23;7.77;;;1.77;;
83354;SDS011;75108;50.882;5.984;2023-12-22T14:24:48;7.20;;;2.20;;
83354;SDS011;75108;50.882;5.984;2023-12-22T14:27:13;7.40;;;2.00;;
83354;SDS011;75108;50.882;5.984;2023-12-22T14:29:39;6.73;;;2.57;;
83354;SDS011;75108;50.882;5.984;2023-12-22T14:32:06;5.80;;;2.13;;
83354;SDS011;75108;50.882;5.984;2023-12-22T14:34:33;7.18;;;2.25;;
83354;SDS011;75108;50.882;5.984;2023-12-22T14:36:59;6.23;;;2.53;;
83354;SDS011;75108;50.882;5.984;2023-12-22T14:39:25;8.07;;;3.30;;
83354;SDS011;75108;50.882;5.984;2023-12-22T14:41:51;5.72;;;1.85;;
83354;SDS011;75108;50.882;5.984;2023-12-22T14:44:17;9.10;;;3.20;;
83354;SDS011;75108;50.882;5.984;2023-12-22T14:46:42;7.57;;;2.23;;
83354;SDS011;75108;50.882;5.984;2023-12-22T14:49:08;8.30;;;2.22;;
83354;SDS011;75108;50.882;5.984;2023-12-22T14:51:37;6.57;;;2.30;;
83354;SDS011;75108;50.882;5.984;2023-12-22T14:54:04;8.38;;;2.17;;
83354;SDS011;75108;50.882;5.984;2023-12-22T14:56:30;7.30;;;1.52;;